createdAt,value
2019-03-27T00:02:35.065Z,99.90
2019-03-27T00:05:21.841Z,99.90
2019-03-27T00:08:08.605Z,99.90
2019-03-27T00:10:55.388Z,99.90
2019-03-27T00:13:22.926Z,99.90
2019-03-27T00:16:09.638Z,99.90
2019-03-27T00:18:49.421Z,99.90
2019-03-27T00:21:28.949Z,99.90
2019-03-27T00:24:09.065Z,99.90
2019-03-27T00:26:48.825Z,99.90
2019-03-27T00:29:16.142Z,99.90
2019-03-27T00:32:03.019Z,99.90
2019-03-27T00:34:49.774Z,99.90
2019-03-27T00:37:36.472Z,99.90
2019-03-27T00:40:23.336Z,99.90
2019-03-27T00:43:10.117Z,99.90
2019-03-27T00:45:56.909Z,99.90
2019-03-27T00:48:43.644Z,99.90
2019-03-27T00:51:30.326Z,99.90
2019-03-27T00:53:57.622Z,99.90
2019-03-27T00:56:44.540Z,99.90
2019-03-27T00:59:31.329Z,99.90
2019-03-27T01:02:18.006Z,99.90
2019-03-27T01:05:05.005Z,99.90
2019-03-27T01:07:51.856Z,99.90
2019-03-27T01:10:38.941Z,99.90
2019-03-27T01:13:26.009Z,99.90
2019-03-27T01:16:12.780Z,99.90
2019-03-27T01:18:52.045Z,99.90
2019-03-27T01:21:32.070Z,99.90
2019-03-27T01:24:11.728Z,99.90
2019-03-27T01:26:51.614Z,99.90
2019-03-27T01:29:31.229Z,99.90
2019-03-27T01:32:10.514Z,99.90
2019-03-27T01:34:50.556Z,99.90
2019-03-27T01:37:30.713Z,99.90
2019-03-27T01:39:58.168Z,99.90
2019-03-27T01:42:44.973Z,99.90
2019-03-27T01:45:31.634Z,99.90
2019-03-27T01:48:18.333Z,99.90
2019-03-27T01:51:05.097Z,99.90
2019-03-27T01:53:32.932Z,99.90
2019-03-27T01:56:19.723Z,99.90
2019-03-27T01:59:06.860Z,99.90
2019-03-27T02:01:53.650Z,99.90
2019-03-27T02:04:40.844Z,99.90
2019-03-27T02:07:27.622Z,99.90
2019-03-27T02:10:14.403Z,99.90
2019-03-27T02:13:01.534Z,99.90
2019-03-27T02:15:29.387Z,99.90
2019-03-27T02:18:09.337Z,99.90
2019-03-27T02:20:49.426Z,99.90
2019-03-27T02:23:29.408Z,99.90
2019-03-27T02:26:08.717Z,99.90
2019-03-27T02:28:49.054Z,99.90
2019-03-27T02:31:28.953Z,99.90
2019-03-27T02:34:09.055Z,99.90
2019-03-27T02:36:48.264Z,99.90
2019-03-27T02:39:28.417Z,99.90
2019-03-27T02:42:08.601Z,99.90
2019-03-27T02:44:48.622Z,99.90
2019-03-27T02:47:28.762Z,99.90
2019-03-27T02:49:56.089Z,99.90
2019-03-27T02:52:42.794Z,99.90
2019-03-27T02:55:10.385Z,99.90
2019-03-27T02:57:57.609Z,99.90
2019-03-27T03:00:25.158Z,99.90
2019-03-27T03:03:11.936Z,99.90
2019-03-27T03:05:58.745Z,99.90
2019-03-27T03:08:45.528Z,99.90
2019-03-27T03:11:32.541Z,99.90
2019-03-27T03:14:19.440Z,99.90
2019-03-27T03:16:46.823Z,99.90
2019-03-27T03:19:14.150Z,99.90
2019-03-27T03:22:00.957Z,99.90
2019-03-27T03:24:47.818Z,99.90
2019-03-27T03:27:34.586Z,99.90
2019-03-27T03:30:21.663Z,99.90
2019-03-27T03:33:08.514Z,99.90
2019-03-27T03:35:55.217Z,99.90
2019-03-27T03:38:42.003Z,99.90
2019-03-27T03:41:29.014Z,99.90
2019-03-27T03:44:16.028Z,99.90
2019-03-27T03:47:03.296Z,99.90
2019-03-27T03:49:50.015Z,99.90
2019-03-27T03:52:36.900Z,99.90
2019-03-27T03:55:23.755Z,99.90
2019-03-27T03:58:32.967Z,99.90
2019-03-27T04:01:41.190Z,99.90
2019-03-27T04:04:49.545Z,99.90
2019-03-27T04:07:36.332Z,99.90
2019-03-27T04:10:23.229Z,99.90
2019-03-27T04:12:50.837Z,99.90
2019-03-27T04:15:18.313Z,99.90
2019-03-27T04:18:06.691Z,99.90
2019-03-27T04:20:53.375Z,99.90
2019-03-27T04:23:40.535Z,99.90
2019-03-27T04:26:27.359Z,99.90
2019-03-27T04:29:14.071Z,99.90
2019-03-27T04:32:00.841Z,99.90
2019-03-27T04:34:47.740Z,99.90
2019-03-27T04:37:35.047Z,99.90
2019-03-27T04:40:21.838Z,99.90
2019-03-27T04:43:08.741Z,99.90
2019-03-27T04:45:55.694Z,99.90
2019-03-27T04:48:42.485Z,99.90
2019-03-27T04:51:29.413Z,99.90
2019-03-27T04:54:16.221Z,99.90
2019-03-27T04:57:02.938Z,99.90
2019-03-27T04:59:49.610Z,99.90
2019-03-27T05:02:36.399Z,99.90
2019-03-27T05:05:23.501Z,99.90
2019-03-27T05:08:10.285Z,99.90
2019-03-27T05:10:57.227Z,99.90
2019-03-27T05:13:44.088Z,99.90
2019-03-27T05:16:30.864Z,99.90
2019-03-27T05:19:10.160Z,99.90
2019-03-27T05:21:50.206Z,99.90
2019-03-27T05:24:29.412Z,99.90
2019-03-27T05:27:09.670Z,99.90
2019-03-27T05:29:49.726Z,99.90
2019-03-27T05:32:29.835Z,99.90
2019-03-27T05:35:09.897Z,99.90
2019-03-27T05:37:49.845Z,99.90
2019-03-27T05:40:29.835Z,99.90
2019-03-27T05:43:09.145Z,99.90
2019-03-27T05:45:48.986Z,99.90
2019-03-27T05:48:28.998Z,99.90
2019-03-27T05:51:09.216Z,99.90
2019-03-27T05:53:49.084Z,99.90
2019-03-27T05:56:28.710Z,99.90
2019-03-27T05:59:08.433Z,99.90
2019-03-27T06:01:50.637Z,99.90
2019-03-27T06:04:18.132Z,99.90
2019-03-27T06:06:45.421Z,99.90
2019-03-27T06:09:32.097Z,99.90
2019-03-27T06:11:59.897Z,99.90
2019-03-27T06:14:46.673Z,99.90
2019-03-27T06:17:33.345Z,99.90
2019-03-27T06:20:13.221Z,99.90
2019-03-27T06:22:53.330Z,99.90
2019-03-27T06:25:33.442Z,99.90
2019-03-27T06:28:12.705Z,99.90
2019-03-27T06:30:52.689Z,99.90
2019-03-27T06:33:32.050Z,99.90
2019-03-27T06:36:12.061Z,99.90
2019-03-27T06:38:52.490Z,99.90
2019-03-27T06:41:31.970Z,99.90
2019-03-27T06:44:12.008Z,99.90
2019-03-27T06:46:52.162Z,99.90
2019-03-27T06:49:31.625Z,99.90
2019-03-27T06:52:11.537Z,99.90
2019-03-27T06:54:51.701Z,99.90
2019-03-27T06:57:31.680Z,99.90
2019-03-27T07:00:11.792Z,99.90
2019-03-27T07:02:51.737Z,99.90
2019-03-27T07:05:30.909Z,99.90
2019-03-27T07:08:10.867Z,99.90
2019-03-27T07:10:50.982Z,99.90
2019-03-27T07:13:30.753Z,99.90
2019-03-27T07:16:10.600Z,99.90
2019-03-27T07:18:50.713Z,99.90
2019-03-27T07:21:29.871Z,99.90
2019-03-27T07:24:09.819Z,99.90
2019-03-27T07:26:50.058Z,99.90
2019-03-27T07:29:30.130Z,99.90
2019-03-27T07:32:10.382Z,99.90
2019-03-27T07:34:37.684Z,99.90
2019-03-27T07:37:24.478Z,99.90
2019-03-27T07:40:11.237Z,99.90
2019-03-27T07:42:58.273Z,99.90
2019-03-27T07:45:45.052Z,99.90
2019-03-27T07:48:32.101Z,99.90
2019-03-27T07:51:18.819Z,99.90
2019-03-27T07:54:05.955Z,99.90
2019-03-27T07:56:52.711Z,99.90
2019-03-27T07:59:39.500Z,99.90
2019-03-27T08:02:26.256Z,99.90
2019-03-27T08:05:13.205Z,99.90
2019-03-27T08:08:00.012Z,99.90
2019-03-27T08:10:46.780Z,99.90
2019-03-27T08:13:33.454Z,99.90
2019-03-27T08:16:20.142Z,99.90
2019-03-27T08:19:07.361Z,99.90
2019-03-27T08:21:42.499Z,99.90
2019-03-27T08:24:22.557Z,99.90
2019-03-27T08:27:02.823Z,99.90
2019-03-27T08:29:42.724Z,99.90
2019-03-27T08:32:22.688Z,99.90
2019-03-27T08:38:01.020Z,99.90
2019-03-27T08:40:41.057Z,99.90
2019-03-27T08:43:20.674Z,99.90
2019-03-27T08:45:57.108Z,99.90
2019-03-27T08:48:43.805Z,99.90
2019-03-27T08:51:31.009Z,99.90
2019-03-27T08:53:58.304Z,99.90
2019-03-27T08:56:45.089Z,99.90
2019-03-27T08:59:31.897Z,99.90
2019-03-27T09:02:33.220Z,97.00
2019-03-27T09:05:20.580Z,96.20
2019-03-27T09:08:07.669Z,94.10
2019-03-27T09:10:54.792Z,93.50
2019-03-27T09:13:41.756Z,93.00
2019-03-27T09:16:28.628Z,92.70
2019-03-27T09:19:08.950Z,90.80
2019-03-27T09:21:49.092Z,90.90
2019-03-27T09:24:29.050Z,84.00
2019-03-27T09:27:09.189Z,89.80
2019-03-27T09:29:49.225Z,92.10
2019-03-27T09:32:29.177Z,91.50
2019-03-27T09:35:09.741Z,90.70
2019-03-27T09:37:49.530Z,89.20
2019-03-27T09:40:29.402Z,91.40
2019-03-27T09:43:09.525Z,90.20
2019-03-27T09:45:49.757Z,83.20
2019-03-27T09:48:29.632Z,88.00
2019-03-27T09:51:09.578Z,89.30
2019-03-27T09:53:48.849Z,90.00
2019-03-27T09:56:28.030Z,89.50
2019-03-27T09:59:08.164Z,84.10
2019-03-27T10:01:48.483Z,85.40
2019-03-27T10:04:28.007Z,92.50
2019-03-27T10:07:08.106Z,92.60
2019-03-27T10:09:50.215Z,89.50
2019-03-27T10:12:16.765Z,92.20
2019-03-27T10:15:04.038Z,90.80
2019-03-27T10:17:50.810Z,92.60
2019-03-27T10:20:18.257Z,93.50
2019-03-27T10:23:05.070Z,95.60
2019-03-27T10:25:52.077Z,93.80
2019-03-27T10:28:38.997Z,93.10
2019-03-27T10:31:26.065Z,90.40
2019-03-27T10:34:12.821Z,91.50
2019-03-27T10:36:59.672Z,90.60
2019-03-27T10:39:46.383Z,92.20
2019-03-27T10:42:33.413Z,91.40
2019-03-27T10:45:00.821Z,90.50
2019-03-27T10:47:47.605Z,93.20
2019-03-27T10:50:34.321Z,93.20
2019-03-27T10:53:21.086Z,90.60
2019-03-27T10:56:08.037Z,89.50
2019-03-27T10:58:54.730Z,93.40
2019-03-27T11:01:41.559Z,91.80
2019-03-27T11:04:08.860Z,92.70
2019-03-27T11:06:56.033Z,93.20
2019-03-27T11:09:42.855Z,92.80
2019-03-27T11:12:29.645Z,92.00
2019-03-27T11:15:16.409Z,90.90
2019-03-27T11:18:03.218Z,92.00
2019-03-27T11:20:49.902Z,89.70
2019-03-27T11:23:36.681Z,90.60
2019-03-27T11:26:23.541Z,92.30
2019-03-27T11:29:10.308Z,91.30
2019-03-27T11:31:57.098Z,92.00
2019-03-27T11:34:44.192Z,92.30
2019-03-27T11:37:31.057Z,91.10
2019-03-27T11:40:18.132Z,90.20
2019-03-27T11:43:04.965Z,91.80
2019-03-27T11:45:51.717Z,92.10
2019-03-27T11:48:38.516Z,91.60
2019-03-27T11:51:25.585Z,91.60
2019-03-27T11:54:12.250Z,91.50
2019-03-27T11:56:59.325Z,90.80
2019-03-27T11:59:53.793Z,92.80
2019-03-27T12:02:34.832Z,91.70
2019-03-27T12:05:21.656Z,90.80
2019-03-27T12:08:08.526Z,91.50
2019-03-27T12:10:55.329Z,92.50
2019-03-27T12:13:22.666Z,91.60
2019-03-27T12:16:09.437Z,92.30
2019-03-27T12:18:36.832Z,91.50
2019-03-27T12:21:04.576Z,92.60
2019-03-27T12:23:51.633Z,92.70
2019-03-27T12:26:38.440Z,93.50
2019-03-27T12:29:25.505Z,93.20
2019-03-27T12:31:53.170Z,93.30
2019-03-27T12:34:40.067Z,92.80
2019-03-27T12:37:26.905Z,92.50
2019-03-27T12:40:13.724Z,93.00
2019-03-27T12:43:00.578Z,91.80
2019-03-27T12:45:47.618Z,92.30
2019-03-27T12:48:15.216Z,92.60
2019-03-27T12:51:12.281Z,92.40
2019-03-27T12:53:50.725Z,92.30
2019-03-27T12:56:37.825Z,91.40
2019-03-27T12:59:24.517Z,92.00
2019-03-27T13:02:11.413Z,91.60
2019-03-27T13:04:58.279Z,90.50
2019-03-27T13:07:50.264Z,92.50
2019-03-27T13:13:20.663Z,91.30
2019-03-27T13:16:07.357Z,92.60
2019-03-27T13:18:46.669Z,92.30
2019-03-27T13:21:27.069Z,93.00
2019-03-27T13:24:07.031Z,92.50
2019-03-27T13:26:46.758Z,93.50
2019-03-27T13:29:26.745Z,93.10
2019-03-27T13:32:07.057Z,92.10
2019-03-27T13:34:47.259Z,91.90
2019-03-27T13:37:26.953Z,91.90
2019-03-27T13:40:07.051Z,94.20
2019-03-27T13:42:47.137Z,90.80
2019-03-27T13:45:55.370Z,93.20
2019-03-27T13:48:42.341Z,90.00
2019-03-27T13:51:39.839Z,85.90
2019-03-27T13:54:17.990Z,86.60
2019-03-27T13:57:04.862Z,84.20
2019-03-27T13:59:32.737Z,76.40
2019-03-27T14:02:19.524Z,70.80
2019-03-27T14:04:46.924Z,72.70
2019-03-27T14:07:33.724Z,75.10
2019-03-27T14:10:20.543Z,75.50
2019-03-27T14:13:07.673Z,78.00
2019-03-27T14:15:55.093Z,84.70
2019-03-27T14:18:34.616Z,89.80
2019-03-27T14:21:14.737Z,90.10
2019-03-27T14:23:54.087Z,88.90
2019-03-27T14:26:44.335Z,88.90
2019-03-27T14:29:16.263Z,91.20
2019-03-27T14:31:56.251Z,92.50
2019-03-27T14:34:36.518Z,92.70
2019-03-27T14:37:04.544Z,90.80
2019-03-27T14:39:51.337Z,92.30
2019-03-27T14:42:38.178Z,93.50
2019-03-27T14:45:24.951Z,92.50
2019-03-27T14:48:11.718Z,90.00
2019-03-27T14:50:58.588Z,87.90
2019-03-27T14:53:45.673Z,81.70
2019-03-27T14:56:13.242Z,82.10
2019-03-27T14:58:59.929Z,80.70
2019-03-27T15:01:46.594Z,79.90
2019-03-27T15:04:33.397Z,76.50
2019-03-27T15:07:00.850Z,74.50
2019-03-27T15:09:47.680Z,78.20
2019-03-27T15:12:34.891Z,80.30
2019-03-27T15:15:21.794Z,83.40
2019-03-27T15:18:08.594Z,84.20
2019-03-27T15:20:48.457Z,87.40
2019-03-27T15:23:28.486Z,87.70
2019-03-27T15:26:08.405Z,84.60
2019-03-27T15:28:50.634Z,84.40
2019-03-27T15:31:28.837Z,84.40
2019-03-27T15:34:09.104Z,78.70
2019-03-27T15:36:49.208Z,76.90
2019-03-27T15:39:29.059Z,80.20
2019-03-27T15:41:56.404Z,80.70
2019-03-27T15:48:13.156Z,85.50
2019-03-27T15:51:00.181Z,85.60
2019-03-27T15:53:47.408Z,86.40
2019-03-27T15:56:38.325Z,86.70
2019-03-27T15:59:24.543Z,87.10
2019-03-27T16:02:11.850Z,89.70
2019-03-27T16:04:58.713Z,91.10
2019-03-27T16:07:45.778Z,90.10
2019-03-27T16:10:32.659Z,83.60
2019-03-27T16:13:19.495Z,84.60
2019-03-27T16:16:06.418Z,82.60
2019-03-27T16:18:46.186Z,81.40
2019-03-27T16:21:26.532Z,79.90
2019-03-27T16:24:06.880Z,78.10
2019-03-27T16:26:53.394Z,76.50
2019-03-27T16:29:28.270Z,77.10
2019-03-27T16:32:08.567Z,80.70
2019-03-27T16:34:48.450Z,84.50
2019-03-27T16:37:27.781Z,85.70
2019-03-27T16:40:07.937Z,90.10
2019-03-27T16:42:48.077Z,91.10
2019-03-27T16:45:28.380Z,91.10
2019-03-27T16:48:08.241Z,91.90
2019-03-27T16:50:48.372Z,91.60
2019-03-27T16:53:28.646Z,92.00
2019-03-27T16:56:08.673Z,92.50
2019-03-27T16:58:49.133Z,93.30
2019-03-27T17:01:28.907Z,94.50
2019-03-27T17:04:08.727Z,95.30
2019-03-27T17:06:48.636Z,95.90
2019-03-27T17:09:28.102Z,96.40
2019-03-27T17:12:08.138Z,97.00
2019-03-27T17:14:48.050Z,97.20
2019-03-27T17:17:28.013Z,98.50
2019-03-27T17:20:07.217Z,99.10
2019-03-27T17:22:47.781Z,99.80
2019-03-27T17:25:27.310Z,99.90
2019-03-27T17:28:07.428Z,99.90
2019-03-27T17:30:35.156Z,99.90
2019-03-27T17:33:02.718Z,99.90
2019-03-27T17:35:49.498Z,99.90
2019-03-27T17:38:36.332Z,99.90
2019-03-27T17:41:23.358Z,99.90
2019-03-27T17:43:51.161Z,99.90
2019-03-27T17:46:37.984Z,99.90
2019-03-27T17:49:24.761Z,99.90
2019-03-27T17:52:11.889Z,99.90
2019-03-27T17:54:58.675Z,99.90
2019-03-27T17:57:45.493Z,99.90
2019-03-27T18:00:52.558Z,99.90
2019-03-27T18:03:39.257Z,99.90
2019-03-27T18:06:26.103Z,99.90
2019-03-27T18:08:53.632Z,99.90
2019-03-27T18:11:40.793Z,99.90
2019-03-27T18:14:27.948Z,99.90
2019-03-27T18:16:55.457Z,99.90
2019-03-27T18:19:34.796Z,99.90
2019-03-27T18:22:14.922Z,99.90
2019-03-27T18:27:58.232Z,99.90
2019-03-27T18:30:36.300Z,99.90
2019-03-27T18:33:16.273Z,99.90
2019-03-27T18:35:56.462Z,99.90
2019-03-27T18:38:36.646Z,99.90
2019-03-27T18:41:16.969Z,99.90
2019-03-27T18:43:56.727Z,99.90
2019-03-27T18:46:37.085Z,99.90
2019-03-27T18:49:16.839Z,99.90
2019-03-27T18:51:57.010Z,99.90
2019-03-27T18:54:36.890Z,99.90
2019-03-27T18:57:16.936Z,99.90
2019-03-27T18:59:56.997Z,99.90
2019-03-27T19:02:24.662Z,99.90
2019-03-27T19:05:11.705Z,99.90
2019-03-27T19:07:58.764Z,99.90
2019-03-27T19:10:45.968Z,99.90
2019-03-27T19:13:32.891Z,99.90
2019-03-27T19:16:19.946Z,99.90
2019-03-27T19:18:59.781Z,99.90
2019-03-27T19:21:39.743Z,99.90
2019-03-27T19:24:19.502Z,99.90
2019-03-27T19:26:59.916Z,99.90
2019-03-27T19:29:39.515Z,99.90
2019-03-27T19:32:19.774Z,99.90
2019-03-27T19:34:59.678Z,99.90
2019-03-27T19:37:39.660Z,99.90
2019-03-27T19:40:19.771Z,99.90
2019-03-27T19:42:59.960Z,99.90
2019-03-27T19:45:40.325Z,99.90
2019-03-27T19:48:20.159Z,99.90
2019-03-27T19:51:00.123Z,99.90
2019-03-27T19:53:40.022Z,99.90
2019-03-27T19:56:20.025Z,99.90
2019-03-27T19:58:59.593Z,99.90
2019-03-27T20:01:39.374Z,99.90
2019-03-27T20:04:06.906Z,99.90
2019-03-27T20:06:53.733Z,99.90
2019-03-27T20:09:40.580Z,99.90
2019-03-27T20:12:27.521Z,99.90
2019-03-27T20:15:14.351Z,99.90
2019-03-27T20:18:01.125Z,99.90
2019-03-27T20:20:41.360Z,99.90
2019-03-27T20:23:21.362Z,99.90
2019-03-27T20:26:01.212Z,99.90
2019-03-27T20:28:41.124Z,99.90
2019-03-27T20:31:20.589Z,99.90
2019-03-27T20:34:00.350Z,99.90
2019-03-27T20:36:40.620Z,99.90
2019-03-27T20:39:20.989Z,99.90
2019-03-27T20:42:00.899Z,99.90
2019-03-27T20:44:41.354Z,99.90
2019-03-27T20:47:21.217Z,99.90
2019-03-27T20:51:54.807Z,99.90
2019-03-27T20:52:51.716Z,99.90
2019-03-27T20:55:31.650Z,99.90
2019-03-27T20:58:11.597Z,99.90
2019-03-27T21:00:51.598Z,99.90
2019-03-27T21:03:31.641Z,99.90
2019-03-27T21:06:12.049Z,99.90
2019-03-27T21:08:39.465Z,99.90
2019-03-27T21:11:26.358Z,99.90
2019-03-27T21:14:13.385Z,99.90
2019-03-27T21:17:01.117Z,99.90
2019-03-27T21:19:40.838Z,99.90
2019-03-27T21:22:08.541Z,99.90
2019-03-27T21:25:08.040Z,99.90
2019-03-27T21:27:44.266Z,99.90
2019-03-27T21:30:31.425Z,99.90
2019-03-27T21:33:18.194Z,99.90
2019-03-27T21:36:05.361Z,99.90
2019-03-27T21:45:43.969Z,99.90
2019-03-27T21:48:30.938Z,99.90
2019-03-27T21:51:17.626Z,99.90
2019-03-27T21:54:04.413Z,99.90
2019-03-27T21:56:51.220Z,99.90
2019-03-27T21:59:38.001Z,99.90
2019-03-27T22:02:25.214Z,99.90
2019-03-27T22:05:12.048Z,99.90
2019-03-27T22:07:58.859Z,99.90
2019-03-27T22:10:45.649Z,99.90
2019-03-27T22:13:32.381Z,99.90
2019-03-27T22:16:19.157Z,99.90
2019-03-27T22:19:05.979Z,99.90
2019-03-27T22:21:45.640Z,99.90
2019-03-27T22:24:25.093Z,99.90
2019-03-27T22:27:05.285Z,99.90
2019-03-27T22:29:45.142Z,99.90
2019-03-27T22:32:25.338Z,99.90
2019-03-27T22:35:05.386Z,99.90
2019-03-27T22:37:45.406Z,99.90
2019-03-27T22:40:25.086Z,99.90
2019-03-27T22:43:04.813Z,99.90
2019-03-27T22:45:45.032Z,99.90
2019-03-27T22:48:24.897Z,99.90
2019-03-27T22:51:05.255Z,99.90
2019-03-27T22:59:45.414Z,99.90
2019-03-27T23:02:25.497Z,99.90
2019-03-27T23:05:05.813Z,99.90
2019-03-27T23:07:45.786Z,99.90
2019-03-27T23:10:25.769Z,99.90
2019-03-27T23:13:05.844Z,99.90
2019-03-27T23:15:45.950Z,99.90
2019-03-27T23:18:26.226Z,99.90
2019-03-27T23:21:06.254Z,99.90
2019-03-27T23:23:46.154Z,99.90
2019-03-27T23:26:26.462Z,99.90
2019-03-27T23:29:06.622Z,99.90
2019-03-27T23:31:46.718Z,99.90
2019-03-27T23:34:26.776Z,99.90
2019-03-27T23:37:06.868Z,99.90
2019-03-27T23:42:45.006Z,99.90
2019-03-27T23:45:25.046Z,99.90
2019-03-27T23:47:52.389Z,99.90
2019-03-27T23:50:46.022Z,99.90
2019-03-27T23:53:33.045Z,99.90
2019-03-27T23:56:19.864Z,99.90
2019-03-27T23:59:06.654Z,99.90
